createdAt,value
2022-10-17T00:00:18.583Z,101111.56
2022-10-17T00:02:45.184Z,101111.78
2022-10-17T00:05:12.163Z,101116.16
2022-10-17T00:07:38.730Z,101116.97
2022-10-17T00:10:07.804Z,101125.63
2022-10-17T00:12:34.966Z,101134.84
2022-10-17T00:15:04.814Z,101133.22
2022-10-17T00:17:31.559Z,101136.50
2022-10-17T00:20:01.682Z,101136.22
2022-10-17T00:22:28.441Z,101133.78
2022-10-17T00:24:55.055Z,101140.31
2022-10-17T00:27:21.723Z,101141.38
2022-10-17T00:29:51.927Z,101139.78
2022-10-17T00:32:19.626Z,101146.28
2022-10-17T00:34:46.562Z,101148.97
2022-10-17T00:37:13.164Z,101147.38
2022-10-17T00:39:39.732Z,101152.78
2022-10-17T00:42:06.526Z,101150.63
2022-10-17T00:44:33.000Z,101156.31
2022-10-17T00:47:04.086Z,101153.09
2022-10-17T00:49:34.422Z,101164.22
2022-10-17T00:52:05.964Z,101155.28
2022-10-17T00:54:40.840Z,101162.06
2022-10-17T00:57:07.503Z,101164.25
2022-10-17T00:59:35.937Z,101151.81
2022-10-17T01:02:11.548Z,101152.34
2022-10-17T01:04:40.362Z,101158.81
2022-10-17T01:07:06.904Z,101162.63
2022-10-17T01:09:34.263Z,101156.13
2022-10-17T01:12:09.867Z,101153.41
2022-10-17T01:15:17.010Z,101151.81
2022-10-17T01:17:46.548Z,101155.13
2022-10-17T01:20:31.460Z,101155.13
2022-10-17T01:23:24.930Z,101157.28
2022-10-17T01:26:21.993Z,101169.50
2022-10-17T01:29:03.824Z,101161.66
2022-10-17T01:31:46.910Z,101164.09
2022-10-17T01:34:29.793Z,101157.84
2022-10-17T01:37:14.885Z,101156.22
2022-10-17T01:39:47.909Z,101157.31
2022-10-17T01:42:38.442Z,101160.84
2022-10-17T01:45:31.541Z,101157.84
2022-10-17T01:48:05.095Z,101157.84
2022-10-17T01:50:37.279Z,101154.59
2022-10-17T01:53:10.674Z,101148.44
2022-10-17T01:55:41.223Z,101147.09
2022-10-17T01:58:12.449Z,101147.31
2022-10-17T02:00:42.839Z,101146.47
2022-10-17T02:03:15.640Z,101154.06
2022-10-17T02:05:44.301Z,101154.06
2022-10-17T02:08:11.789Z,101150.56
2022-10-17T02:10:50.493Z,101152.94
2022-10-17T02:13:32.327Z,101151.06
2022-10-17T02:16:13.308Z,101158.34
2022-10-17T02:18:48.872Z,101150.50
2022-10-17T02:21:39.840Z,101135.38
2022-10-17T02:24:20.629Z,101142.44
2022-10-17T02:27:03.731Z,101145.41
2022-10-17T02:29:40.297Z,101149.19
2022-10-17T02:32:12.189Z,101143.78
2022-10-17T02:34:46.881Z,101152.19
2022-10-17T02:37:19.288Z,101145.69
2022-10-17T02:39:47.555Z,101144.34
2022-10-17T02:42:14.970Z,101147.31
2022-10-17T02:44:44.795Z,101143.81
2022-10-17T02:47:23.129Z,101149.28
2022-10-17T02:49:55.942Z,101154.69
2022-10-17T02:52:34.056Z,101149.81
2022-10-17T02:55:10.805Z,101149.84
2022-10-17T02:57:42.281Z,101152.56
2022-10-17T03:00:12.258Z,101155.25
2022-10-17T03:02:47.304Z,101157.13
2022-10-17T03:05:18.722Z,101156.31
2022-10-17T03:07:45.711Z,101154.19
2022-10-17T03:10:12.584Z,101162.31
2022-10-17T03:12:39.200Z,101155.25
2022-10-17T03:15:07.417Z,101160.94
2022-10-17T03:17:34.359Z,101156.38
2022-10-17T03:20:01.040Z,101158.56
2022-10-17T03:22:29.526Z,101157.47
2022-10-17T03:24:58.001Z,101166.13
2022-10-17T03:27:25.123Z,101163.41
2022-10-17T03:29:51.675Z,101158.00
2022-10-17T03:32:18.345Z,101171.28
2022-10-17T03:34:45.191Z,101176.41
2022-10-17T03:37:12.034Z,101169.41
2022-10-17T03:39:40.322Z,101172.66
2022-10-17T03:42:06.884Z,101180.22
2022-10-17T03:44:33.424Z,101175.41
2022-10-17T03:46:59.979Z,101182.97
2022-10-17T03:49:26.569Z,101180.03
2022-10-17T03:51:53.305Z,101191.13
2022-10-17T03:54:19.879Z,101188.94
2022-10-17T03:56:46.895Z,101193.00
2022-10-17T03:59:17.078Z,101193.28
2022-10-17T04:01:50.827Z,101197.06
2022-10-17T04:04:18.460Z,101195.47
2022-10-17T04:06:45.056Z,101202.50
2022-10-17T04:09:11.779Z,101199.81
2022-10-17T04:11:48.118Z,101206.34
2022-10-17T04:14:14.792Z,101219.59
2022-10-17T04:16:42.194Z,101210.94
2022-10-17T04:19:14.103Z,101216.06
2022-10-17T04:21:44.500Z,101211.72
2022-10-17T04:24:12.064Z,101211.41
2022-10-17T04:26:44.581Z,101214.38
2022-10-17T04:29:12.015Z,101212.75
2022-10-17T04:31:40.981Z,101203.28
2022-10-17T04:34:15.572Z,101215.47
2022-10-17T04:36:42.315Z,101207.88
2022-10-17T04:39:09.090Z,101204.09
2022-10-17T04:41:36.324Z,101204.91
2022-10-17T04:44:02.924Z,101208.72
2022-10-17T04:46:35.133Z,101206.56
2022-10-17T04:49:01.855Z,101209.00
2022-10-17T04:51:29.123Z,101215.50
2022-10-17T04:54:15.932Z,101211.50
2022-10-17T04:56:44.296Z,101218.28
2022-10-17T04:59:11.159Z,101223.69
2022-10-17T05:01:39.514Z,101229.34
2022-10-17T05:04:06.638Z,101229.06
2022-10-17T05:06:33.645Z,101222.31
2022-10-17T05:09:18.656Z,101223.16
2022-10-17T05:11:45.358Z,101218.81
2022-10-17T05:14:12.934Z,101230.97
2022-10-17T05:16:39.554Z,101231.25
2022-10-17T05:19:06.497Z,101229.63
2022-10-17T05:21:39.444Z,101236.63
2022-10-17T05:24:10.940Z,101230.13
2022-10-17T05:26:38.981Z,101225.84
2022-10-17T05:29:05.734Z,101220.44
2022-10-17T05:31:36.512Z,101225.53
2022-10-17T05:34:04.520Z,101211.78
2022-10-17T05:36:33.303Z,101226.88
2022-10-17T05:39:01.335Z,101235.53
2022-10-17T05:41:28.631Z,101232.31
2022-10-17T05:43:55.358Z,101232.28
2022-10-17T05:46:33.975Z,101239.31
2022-10-17T05:49:00.552Z,101245.53
2022-10-17T05:51:27.671Z,101247.44
2022-10-17T05:53:56.123Z,101247.47
2022-10-17T05:56:26.146Z,101249.09
2022-10-17T05:58:57.386Z,101246.34
2022-10-17T06:01:46.655Z,101249.59
2022-10-17T06:04:13.588Z,101257.69
2022-10-17T06:06:40.822Z,101254.50
2022-10-17T06:09:08.175Z,101266.34
2022-10-17T06:11:38.237Z,101263.38
2022-10-17T06:14:06.047Z,101267.47
2022-10-17T06:16:32.740Z,101269.34
2022-10-17T06:18:59.412Z,101272.31
2022-10-17T06:21:27.553Z,101269.06
2022-10-17T06:24:02.859Z,101268.78
2022-10-17T06:26:32.405Z,101270.16
2022-10-17T06:28:59.244Z,101271.19
2022-10-17T06:31:30.635Z,101286.91
2022-10-17T06:33:57.678Z,101283.66
2022-10-17T06:36:24.399Z,101280.69
2022-10-17T06:38:51.134Z,101281.50
2022-10-17T06:41:22.888Z,101293.94
2022-10-17T06:43:52.498Z,101300.13
2022-10-17T06:46:48.528Z,101300.41
2022-10-17T06:49:16.987Z,101301.50
2022-10-17T06:51:48.891Z,101303.13
2022-10-17T06:54:18.489Z,101298.78
2022-10-17T06:57:00.608Z,101315.53
2022-10-17T06:59:30.294Z,101314.47
2022-10-17T07:02:05.893Z,101309.56
2022-10-17T07:04:32.792Z,101312.28
2022-10-17T07:09:33.464Z,101304.44
2022-10-17T07:12:00.207Z,101317.09
2022-10-17T07:14:32.094Z,101319.25
2022-10-17T07:16:59.608Z,101324.94
2022-10-17T07:19:28.821Z,101325.16
2022-10-17T07:21:55.504Z,101332.72
2022-10-17T07:24:22.220Z,101323.28
2022-10-17T07:26:54.301Z,101326.78
2022-10-17T07:29:21.083Z,101327.28
2022-10-17T07:32:08.604Z,101331.59
2022-10-17T07:34:36.538Z,101337.28
2022-10-17T07:37:03.996Z,101336.94
2022-10-17T07:39:30.665Z,101343.41
2022-10-17T07:41:59.221Z,101349.31
2022-10-17T07:44:26.118Z,101361.22
2022-10-17T07:46:53.845Z,101356.31
2022-10-17T07:49:20.372Z,101357.66
2022-10-17T07:51:48.563Z,101360.03
2022-10-17T07:54:15.199Z,101367.06
2022-10-17T07:56:41.715Z,101365.41
2022-10-17T07:59:09.465Z,101372.38
2022-10-17T08:01:37.091Z,101370.16
2022-10-17T08:04:03.797Z,101373.94
2022-10-17T08:06:30.410Z,101371.53
2022-10-17T08:08:57.931Z,101381.06
2022-10-17T08:11:25.348Z,101376.63
2022-10-17T08:13:52.143Z,101376.88
2022-10-17T08:16:18.950Z,101381.13
2022-10-17T08:18:45.556Z,101373.69
2022-10-17T08:21:13.337Z,101374.66
2022-10-17T08:23:40.816Z,101371.34
2022-10-17T08:26:10.511Z,101376.78
2022-10-17T08:28:39.283Z,101379.25
2022-10-17T08:31:08.796Z,101372.47
2022-10-17T08:33:35.488Z,101370.59
2022-10-17T08:36:03.450Z,101378.78
2022-10-17T08:38:35.058Z,101373.44
2022-10-17T08:41:07.136Z,101371.69
2022-10-17T08:43:39.753Z,101374.34
2022-10-17T08:46:08.918Z,101380.47
2022-10-17T08:48:44.078Z,101377.66
2022-10-17T08:51:22.736Z,101371.53
2022-10-17T08:54:02.291Z,101371.16
2022-10-17T08:56:58.371Z,101366.41
2022-10-17T08:59:30.061Z,101373.53
2022-10-17T09:02:13.391Z,101379.69
2022-10-17T09:04:58.989Z,101377.72
2022-10-17T09:07:58.766Z,101381.22
2022-10-17T09:10:44.717Z,101385.41
2022-10-17T09:13:32.791Z,101377.34
2022-10-17T09:16:18.753Z,101377.94
2022-10-17T09:18:57.065Z,101377.25
2022-10-17T09:21:26.592Z,101377.25
2022-10-17T09:24:09.075Z,101377.53
2022-10-17T09:26:39.456Z,101386.94
2022-10-17T09:29:16.857Z,101375.34
2022-10-17T09:31:51.818Z,101388.22
2022-10-17T09:34:18.514Z,101387.97
2022-10-17T09:36:45.089Z,101391.28
2022-10-17T09:39:22.876Z,101384.81
2022-10-17T09:41:51.919Z,101375.44
2022-10-17T09:44:21.673Z,101376.75
2022-10-17T09:46:56.720Z,101374.75
2022-10-17T09:49:33.591Z,101372.72
2022-10-17T09:52:05.862Z,101381.28
2022-10-17T09:54:43.708Z,101383.41
2022-10-17T09:57:12.835Z,101392.31
2022-10-17T09:59:42.724Z,101395.94
2022-10-17T10:02:20.051Z,101389.25
2022-10-17T10:05:04.200Z,101391.81
2022-10-17T10:07:35.344Z,101390.22
2022-10-17T10:10:04.558Z,101391.34
2022-10-17T10:12:34.027Z,101383.44
2022-10-17T10:15:00.923Z,101394.19
2022-10-17T10:17:41.579Z,101388.09
2022-10-17T10:20:31.618Z,101406.72
2022-10-17T10:23:22.136Z,101402.72
2022-10-17T10:26:23.329Z,101406.13
2022-10-17T10:28:59.875Z,101415.09
2022-10-17T10:31:33.420Z,101405.56
2022-10-17T10:34:03.209Z,101408.06
2022-10-17T10:36:58.289Z,101395.97
2022-10-17T10:39:49.721Z,101389.06
2022-10-17T10:42:37.379Z,101393.91
2022-10-17T10:45:43.264Z,101393.91
2022-10-17T10:48:23.291Z,101393.72
2022-10-17T10:50:49.817Z,101398.56
2022-10-17T10:53:35.553Z,101403.06
2022-10-17T10:56:21.630Z,101401.00
2022-10-17T10:58:57.636Z,101398.34
2022-10-17T11:01:35.527Z,101397.59
2022-10-17T11:04:23.514Z,101377.88
2022-10-17T11:06:55.188Z,101381.72
2022-10-17T11:09:50.993Z,101382.22
2022-10-17T11:12:20.779Z,101384.56
2022-10-17T11:15:05.891Z,101381.38
2022-10-17T11:17:35.682Z,101390.97
2022-10-17T11:20:25.886Z,101382.72
2022-10-17T11:22:58.728Z,101393.84
2022-10-17T11:25:28.178Z,101379.00
2022-10-17T11:27:54.878Z,101380.97
2022-10-17T11:30:24.193Z,101389.03
2022-10-17T11:32:54.220Z,101385.66
2022-10-17T11:35:31.743Z,101386.31
2022-10-17T11:38:06.659Z,101384.47
2022-10-17T11:40:40.203Z,101379.19
2022-10-17T11:43:28.684Z,101376.03
2022-10-17T11:46:02.543Z,101376.03
2022-10-17T11:48:37.615Z,101375.34
2022-10-17T11:54:16.168Z,101375.41
2022-10-17T11:56:55.809Z,101377.34
2022-10-17T11:59:50.362Z,101373.66
2022-10-17T12:02:47.884Z,101374.88
2022-10-17T12:05:37.492Z,101375.47
2022-10-17T12:08:18.337Z,101365.25
2022-10-17T12:11:01.159Z,101364.97
2022-10-17T12:13:28.237Z,101363.78
2022-10-17T12:16:17.524Z,101369.84
2022-10-17T12:18:44.910Z,101372.78
2022-10-17T12:21:11.697Z,101375.19
2022-10-17T12:23:40.053Z,101362.94
2022-10-17T12:26:10.570Z,101369.28
2022-10-17T12:28:37.178Z,101364.59
2022-10-17T12:31:15.834Z,101370.09
2022-10-17T12:33:59.345Z,101366.16
2022-10-17T12:36:28.895Z,101372.50
2022-10-17T12:39:01.551Z,101379.94
2022-10-17T12:41:51.585Z,101366.19
2022-10-17T12:44:21.377Z,101373.59
2022-10-17T12:46:48.294Z,101361.91
2022-10-17T12:49:37.095Z,101358.03
2022-10-17T12:52:15.920Z,101355.97
2022-10-17T12:54:47.986Z,101361.25
2022-10-17T12:57:47.753Z,101357.47
2022-10-17T13:00:17.174Z,101359.72
2022-10-17T13:02:44.650Z,101360.91
2022-10-17T13:05:32.875Z,101362.72
2022-10-17T13:08:02.373Z,101367.53
2022-10-17T13:10:33.506Z,101364.06
2022-10-17T13:13:08.976Z,101367.28
2022-10-17T13:15:37.135Z,101370.50
2022-10-17T13:18:04.601Z,101372.31
2022-10-17T13:20:32.185Z,101371.84
2022-10-17T13:22:59.508Z,101378.00
2022-10-17T13:25:27.240Z,101375.72
2022-10-17T13:28:06.179Z,101375.47
2022-10-17T13:30:35.330Z,101376.13
2022-10-17T13:33:02.983Z,101396.22
2022-10-17T13:38:28.787Z,101385.91
2022-10-17T13:41:05.824Z,101393.00
2022-10-17T13:43:32.989Z,101392.28
2022-10-17T13:46:25.307Z,101391.19
2022-10-17T13:48:52.531Z,101393.16
2022-10-17T13:51:19.607Z,101394.09
2022-10-17T13:53:46.203Z,101399.34
2022-10-17T13:56:29.499Z,101401.44
2022-10-17T13:59:00.231Z,101403.59
2022-10-17T14:01:29.044Z,101392.84
2022-10-17T14:04:07.819Z,101398.44
2022-10-17T14:06:45.108Z,101399.31
2022-10-17T14:09:26.765Z,101395.75
2022-10-17T14:11:58.559Z,101396.91
2022-10-17T14:14:26.121Z,101400.66
2022-10-17T14:16:58.321Z,101402.16
2022-10-17T14:19:28.025Z,101405.75
2022-10-17T14:21:57.330Z,101398.66
2022-10-17T14:24:23.984Z,101402.06
2022-10-17T14:26:59.495Z,101398.41
2022-10-17T14:29:50.411Z,101402.34
2022-10-17T14:32:18.071Z,101400.13
2022-10-17T14:34:46.564Z,101404.50
2022-10-17T14:37:47.679Z,101410.00
2022-10-17T14:40:17.596Z,101410.31
2022-10-17T14:42:45.493Z,101415.28
2022-10-17T14:45:23.806Z,101421.09
2022-10-17T14:47:52.806Z,101417.88
2022-10-17T14:50:32.044Z,101416.59
2022-10-17T14:53:10.735Z,101423.03
2022-10-17T14:55:40.120Z,101420.94
2022-10-17T14:58:33.545Z,101428.19
2022-10-17T15:01:02.090Z,101425.28
2022-10-17T15:03:28.790Z,101434.31
2022-10-17T15:05:55.806Z,101431.91
2022-10-17T15:08:24.349Z,101439.13
2022-10-17T15:10:51.873Z,101442.19
2022-10-17T15:13:40.067Z,101443.81
2022-10-17T15:16:26.480Z,101447.34
2022-10-17T15:18:54.141Z,101449.28
2022-10-17T15:21:39.197Z,101455.72
2022-10-17T15:24:08.696Z,101450.41
2022-10-17T15:26:35.820Z,101455.88
2022-10-17T15:29:02.635Z,101459.56
2022-10-17T15:31:31.423Z,101453.63
2022-10-17T15:33:58.074Z,101455.06
2022-10-17T15:36:36.111Z,101453.31
2022-10-17T15:39:03.158Z,101455.91
2022-10-17T15:41:31.747Z,101456.53
2022-10-17T15:43:59.426Z,101452.03
2022-10-17T15:46:32.714Z,101449.00
2022-10-17T15:49:04.072Z,101452.81
2022-10-17T15:51:30.697Z,101453.31
2022-10-17T15:53:57.351Z,101450.22
2022-10-17T15:56:28.544Z,101453.16
2022-10-17T15:58:55.511Z,101460.22
2022-10-17T16:01:25.002Z,101455.03
2022-10-17T16:03:51.739Z,101462.94
2022-10-17T16:06:19.517Z,101466.09
2022-10-17T16:08:46.972Z,101461.25
2022-10-17T16:11:25.709Z,101460.13
2022-10-17T16:13:54.114Z,101465.41
2022-10-17T16:16:22.483Z,101473.25
2022-10-17T16:18:49.269Z,101479.03
2022-10-17T16:21:17.641Z,101479.84
2022-10-17T16:23:45.150Z,101484.16
2022-10-17T16:26:15.880Z,101482.25
2022-10-17T16:28:46.076Z,101473.56
2022-10-17T16:31:22.915Z,101478.84
2022-10-17T16:33:51.718Z,101484.13
2022-10-17T16:36:19.231Z,101483.16
2022-10-17T16:38:46.902Z,101483.63
2022-10-17T16:41:29.591Z,101470.53
2022-10-17T16:43:58.877Z,101488.63
2022-10-17T16:46:26.915Z,101488.84
2022-10-17T16:48:54.409Z,101489.13
2022-10-17T16:51:21.415Z,101501.28
2022-10-17T16:53:50.623Z,101503.84
2022-10-17T16:56:19.850Z,101504.78
2022-10-17T16:58:47.344Z,101502.16
2022-10-17T17:01:17.184Z,101502.78
2022-10-17T17:03:45.267Z,101504.00
2022-10-17T17:06:17.302Z,101504.63
2022-10-17T17:08:44.517Z,101511.31
2022-10-17T17:11:13.760Z,101503.75
2022-10-17T17:13:41.353Z,101504.69
2022-10-17T17:16:22.928Z,101504.97
2022-10-17T17:18:55.287Z,101507.19
2022-10-17T17:21:22.279Z,101516.38
2022-10-17T17:23:49.009Z,101518.38
2022-10-17T17:26:18.720Z,101523.72
2022-10-17T17:28:46.124Z,101525.84
2022-10-17T17:31:16.059Z,101529.06
2022-10-17T17:33:43.307Z,101525.03
2022-10-17T17:36:13.917Z,101528.06
2022-10-17T17:38:41.322Z,101530.31
2022-10-17T17:41:08.289Z,101525.94
2022-10-17T17:43:35.823Z,101529.81
2022-10-17T17:46:02.696Z,101525.28
2022-10-17T17:48:29.474Z,101521.53
2022-10-17T17:50:56.155Z,101526.94
2022-10-17T17:53:23.154Z,101522.66
2022-10-17T17:56:04.898Z,101533.59
2022-10-17T17:58:32.086Z,101540.88
2022-10-17T18:00:59.258Z,101542.69
2022-10-17T18:03:26.646Z,101544.81
2022-10-17T18:05:53.810Z,101552.16
2022-10-17T18:08:20.702Z,101546.69
2022-10-17T18:10:49.391Z,101551.16
2022-10-17T18:13:16.743Z,101557.53
2022-10-17T18:15:44.480Z,101565.72
2022-10-17T18:18:11.150Z,101562.50
2022-10-17T18:20:42.320Z,101560.34
2022-10-17T18:23:10.299Z,101555.63
2022-10-17T18:25:37.295Z,101552.38
2022-10-17T18:28:04.428Z,101558.94
2022-10-17T18:30:34.517Z,101561.66
2022-10-17T18:33:01.248Z,101568.75
2022-10-17T18:35:27.982Z,101571.97
2022-10-17T18:37:56.899Z,101567.31
2022-10-17T18:40:23.638Z,101570.19
2022-10-17T18:42:50.282Z,101571.19
2022-10-17T18:45:17.425Z,101575.63
2022-10-17T18:47:47.141Z,101573.41
2022-10-17T18:50:14.659Z,101571.97
2022-10-17T18:52:41.421Z,101568.16
2022-10-17T18:55:08.490Z,101567.84
2022-10-17T18:57:35.463Z,101570.56
2022-10-17T19:00:02.168Z,101571.69
2022-10-17T19:02:28.860Z,101565.50
2022-10-17T19:04:55.442Z,101573.00
2022-10-17T19:07:22.166Z,101581.88
2022-10-17T19:09:49.260Z,101571.97
2022-10-17T19:12:16.092Z,101571.75
2022-10-17T19:14:42.763Z,101567.63
2022-10-17T19:17:09.493Z,101558.72
2022-10-17T19:19:36.281Z,101561.25
2022-10-17T19:22:03.599Z,101564.03
2022-10-17T19:24:30.296Z,101565.22
2022-10-17T19:26:59.356Z,101561.47
2022-10-17T19:29:28.294Z,101559.75
2022-10-17T19:34:22.567Z,101557.66
2022-10-17T19:36:49.870Z,101555.91
2022-10-17T19:39:18.975Z,101550.03
2022-10-17T19:41:47.910Z,101555.84
2022-10-17T19:44:15.809Z,101552.84
2022-10-17T19:46:45.676Z,101566.66
2022-10-17T19:49:13.329Z,101569.88
2022-10-17T19:51:40.048Z,101560.03
2022-10-17T19:54:06.719Z,101552.97
2022-10-17T19:56:37.691Z,101559.59
2022-10-17T19:59:08.001Z,101559.38
2022-10-17T20:01:38.913Z,101558.56
2022-10-17T20:04:06.870Z,101559.38
2022-10-17T20:06:34.276Z,101553.94
2022-10-17T20:09:01.069Z,101559.38
2022-10-17T20:11:28.913Z,101555.56
2022-10-17T20:13:56.349Z,101558.81
2022-10-17T20:16:25.104Z,101561.81
2022-10-17T20:18:54.736Z,101561.81
2022-10-17T20:21:23.467Z,101562.38
2022-10-17T20:23:51.601Z,101559.75
2022-10-17T20:29:15.232Z,101553.72
2022-10-17T20:31:43.934Z,101560.78
2022-10-17T20:34:41.095Z,101560.19
2022-10-17T20:37:27.946Z,101564.03
2022-10-17T20:40:16.480Z,101561.81
2022-10-17T20:42:41.656Z,101570.50
2022-10-17T20:45:08.650Z,101561.53
2022-10-17T20:47:45.892Z,101557.25
2022-10-17T20:50:13.979Z,101551.38
2022-10-17T20:52:40.687Z,101558.19
2022-10-17T20:55:07.640Z,101559.84
2022-10-17T20:57:34.171Z,101560.91
2022-10-17T21:00:00.762Z,101566.63
2022-10-17T21:02:27.738Z,101569.88
2022-10-17T21:04:54.359Z,101566.34
2022-10-17T21:07:22.204Z,101574.59
2022-10-17T21:09:48.793Z,101569.28
2022-10-17T21:12:25.830Z,101574.22
2022-10-17T21:14:58.914Z,101571.78
2022-10-17T21:17:25.762Z,101579.66
2022-10-17T21:19:52.367Z,101589.94
2022-10-17T21:22:18.942Z,101590.47
2022-10-17T21:24:45.524Z,101582.81
2022-10-17T21:27:15.676Z,101579.56
2022-10-17T21:29:42.325Z,101583.47
2022-10-17T21:32:19.495Z,101583.53
2022-10-17T21:34:57.090Z,101573.22
2022-10-17T21:37:23.691Z,101577.00
2022-10-17T21:39:50.264Z,101573.63
2022-10-17T21:42:16.868Z,101573.56
2022-10-17T21:44:43.784Z,101571.34
2022-10-17T21:47:10.697Z,101574.59
2022-10-17T21:49:38.349Z,101575.16
2022-10-17T21:52:07.158Z,101578.50
2022-10-17T21:54:33.860Z,101574.13
2022-10-17T21:57:00.786Z,101579.56
2022-10-17T21:59:27.427Z,101589.66
2022-10-17T22:01:54.087Z,101591.25
2022-10-17T22:04:20.721Z,101577.97
2022-10-17T22:06:51.094Z,101574.41
2022-10-17T22:09:24.115Z,101583.19
2022-10-17T22:11:53.933Z,101579.94
2022-10-17T22:14:22.666Z,101582.94
2022-10-17T22:16:49.988Z,101577.00
2022-10-17T22:19:19.932Z,101586.56
2022-10-17T22:21:46.879Z,101579.28
2022-10-17T22:24:15.422Z,101582.88
2022-10-17T22:26:42.973Z,101578.59
2022-10-17T22:29:10.142Z,101576.16
2022-10-17T22:31:37.505Z,101577.31
2022-10-17T22:34:05.510Z,101568.41
2022-10-17T22:36:32.435Z,101570.41
2022-10-17T22:38:59.009Z,101560.41
2022-10-17T22:41:25.551Z,101565.59
2022-10-17T22:43:52.212Z,101561.56
2022-10-17T22:46:18.880Z,101551.75
2022-10-17T22:48:45.850Z,101548.75
2022-10-17T22:51:13.248Z,101548.19
2022-10-17T22:53:40.023Z,101558.25
2022-10-17T22:56:12.661Z,101553.59
2022-10-17T22:58:39.930Z,101556.41
2022-10-17T23:01:08.284Z,101554.75
2022-10-17T23:03:35.801Z,101560.78
2022-10-17T23:06:03.762Z,101555.34
2022-10-17T23:08:30.578Z,101560.78
2022-10-17T23:10:57.371Z,101559.16
2022-10-17T23:13:23.938Z,101558.88
2022-10-17T23:15:54.980Z,101565.13
2022-10-17T23:18:22.695Z,101557.56
2022-10-17T23:20:49.963Z,101564.59
2022-10-17T23:23:17.188Z,101569.22
2022-10-17T23:25:43.870Z,101556.50
2022-10-17T23:28:11.107Z,101565.22
2022-10-17T23:30:39.043Z,101564.13
2022-10-17T23:33:06.215Z,101564.91
2022-10-17T23:35:33.071Z,101555.72
2022-10-17T23:38:00.207Z,101552.13
2022-10-17T23:40:26.976Z,101544.50
2022-10-17T23:42:53.736Z,101544.50
2022-10-17T23:45:20.467Z,101539.84
2022-10-17T23:47:47.168Z,101542.44
2022-10-17T23:50:13.846Z,101528.91
2022-10-17T23:52:40.432Z,101527.50
2022-10-17T23:55:07.928Z,101522.59
2022-10-17T23:57:34.713Z,101531.63
